Maryland AWOS List, Phone Numbers

USA |  
| Search AWOS

Rocky Mountain States: Montana | Wyoming | Colorado | New Mexico

Complete weather reports: Maryland

Legend: KFNL = METAR available Follow your local AWOS on AV Mobile = METAR available on AV Mobile
Station Maryland Location Frequency Phone
KAPGFAA ID APG, KAPG 310055Z 29012G24KT 7SM SKC M03/M12 A3016 Follow KAPG on AV Mobile Phillips Army Air Field / Aberdeen
K61WICAO ID K61W Annapolis Coast Guard Station
KNAKICAO ID KNAK, KNAK 310954Z AUTO 31010KT 10SM CLR M07/M14 A3026 RMK AO2 SLP250 T10671139 Follow KNAK on AV Mobile ANNAPOLIS US NAVAL ACADEMY
KLWXICAO ID KLWX Baltimore / DC Nexrad
KDMHICAO ID KDMH, KDMH 310854Z AUTO M07/M18 A3027 RMK AO1 SLP251 T10721178 51008 Follow KDMH on AV Mobile BALTIMORE DOWNTOWN
KMTNFAA ID MTN, AWOS-3, KMTN 310954Z AUTO 29013G21KT 10SM CLR M07/M16 A3028 RMK AO2 Follow KMTN on AV Mobile Baltimore / Martin 410-682-8848
KBWIFAA ID BWI, ASOS, KBWI 310954Z 30014G19KT 10SM CLR M08/M16 A3026 RMK AO2 SLP248 T10831156 Follow KBWI on AV Mobile BALTIMORE-WASHINGTON INTERNATIONAL 410-691-1278
4MDFAA ID 4MD, Belfort PIER 7
KCGEFAA ID CGE, AWOS-3, KCGE 310952Z AUTO 31012G24KT 10SM CLR M05/M15 A3024 RMK AO1 Follow KCGE on AV Mobile CAMBRIDGE 120.675 410-228-7559
KADWFAA ID ADW, KADW 310958Z AUTO 31018G27KT 10SM CLR M08/M16 A3026 RMK AO2 PK WND 31027/52 SLP258 T10781159 $ Follow KADW on AV Mobile Camp Springs / Andrews Air Force Base
W32FAA ID W32, Belfort WASHINGTON EXECUTIVE/HYDE FIELD
KCGSFAA ID CGS, AWOS-3, KCGS 310950Z AUTO 31008KT 280V340 10SM CLR M06/M14 A3028 RMK AO1 Follow KCGS on AV Mobile COLLEGE PARK 121.225 301-864-5497
K66WICAO ID K66W Cove Point Coast Guard Light Station
KCBEFAA ID CBE, AWOS-3, KCBE 310952Z AUTO 28010KT 10SM CLR M08/M16 A3036 RMK AO1 Follow KCBE on AV Mobile Cumberland, Greater Cumberland Regional Airport 128.625 304-738-0451
KESNFAA ID ESN, AWOS-3, KESN 311007Z AUTO 34015G19KT 10SM CLR M06/M14 A3028 RMK AO2 T10601141 Follow KESN on AV Mobile Easton / Newman Field 124.475 410-822-2817
KFMEFAA ID FME, AWOS-3, KFME 310951Z AUTO 30011G16KT 10SM CLR M07/M14 A3029 RMK AO1 Follow KFME on AV Mobile Fort Meade / Tipton 123.925
KJWXICAO ID KJWX Fort Ritchie
KFDKFAA ID FDK, AWOS-3, KFDK 310950Z AUTO 31010G16KT 10SM CLR M07/M16 A3031 RMK AO2 Follow KFDK on AV Mobile Frederick, Frederick Municipal Airport 124.875 301-600-1457
KGAIFAA ID GAI, AWOS-3, KGAI 310955Z 31008G17KT 10SM CLR M09/M16 A3029 RMK AO1 Follow KGAI on AV Mobile GAITHERSBURG 128.275 301-977-2971
KHGRFAA ID HGR, ASOS, KHGR 310953Z AUTO 31010KT 10SM CLR M09/M16 A3027 RMK AO2 SLP272 T10941161 Follow KHGR on AV Mobile HAGERSTOWN REGIONAL AIRPORT 126.375 301-745-3497
K2W6FAA ID 2W6, AWOS-3, K2W6 310952Z AUTO 30007KT 10SM CLR M07/M16 A3028 RMK AO1 Follow K2W6 on AV Mobile LEONARDTOWN 119.575 301-373-6514
K2G4FAA ID 2G4, AWOS-3, K2G4 310950Z AUTO 27009G14KT 10SM CLR M16/ A3013 RMK AO1 Follow K2G4 on AV Mobile OAKLAND 120.125 301-746-8443
KW30ICAO ID KW30 Ocean City
KN80ICAO ID KN80 Ocean City, Ocean City Municipal Airport
KOXBFAA ID OXB, ASOS, KOXB 310953Z AUTO 33011G26KT 10SM CLR M07/M17 A3019 RMK AO2 PK WND 35030/0928 SLP224 T10721172 TSNO Follow KOXB on AV Mobile OCEAN CITY MUNICIPAL AIRPORT 119.025 410-213-1530
KNHKFAA ID NHK, KNHK 310952Z AUTO 33023G30KT 10SM CLR M07/M15 A3026 RMK AO2 PK WND 33032/0920 SLP247 T10671150 Follow KNHK on AV Mobile NAS PATUXENT RIVER MD
KSBYFAA ID SBY, ASOS, KSBY 310954Z AUTO 32017G27KT 10SM CLR M06/M17 A3022 RMK AO2 PK WND 32029/0943 SLP235 T10561172 Follow KSBY on AV Mobile SALISBURY-WICOMICO CTY REG 118.325 410-341-0868
KNUIFAA ID NUI, KNUI 310953Z AUTO VRB06G20KT 10SM CLR M07/M16 A3027 RMK AO2 SLP249 T10671161 Follow KNUI on AV Mobile KNUI WEBSTER FIELD ANNEX
KW29FAA ID W29, AWOS-3, KW29 310952Z AUTO 31020G25KT 10SM M06/M15 A3027 RMK AO1 Follow KW29 on AV Mobile STEVENSVILLE 120.575 410-643-8795
K67WICAO ID K67W Stillpond Coast Guard Station
K65WICAO ID K65W Thomas Point Coast Guard Station
KDMWFAA ID DMW, AWOS-3, KDMW 310950Z AUTO 31010G17KT 10SM SCT090 M10/M17 A3022 RMK AO2 Follow KDMW on AV Mobile WESTMINSTER 121.25 410-876-1281

Click on the AV Mobile icon AV Mobile icon by any station to follow that AWOS feed on AirportView.net Mobile.

Garmin aera 796 $1999 at Avionics Specialists LLC
Bose A20 Aviation Headsets $995 at Avionics Specialists LLC